Terminal Aerodrome Forecast
Issued by NWS

Home | Current Version | Previous Version | Text Only | Print | Product List | Glossary On
Versions: 1 2 3 4 5 6 7 8 9 10 11 12 13 14 15
670
FTUS44 KLIX 180540 AAA
TAFMSY
TAF AMD
KMSY 180540Z 1806/1912 18005KT P6SM FEW250
     FM181300 20008KT 6SM BR SCT003 BKN090
     FM181500 21012KT P6SM BKN025
     FM182300 24013KT P6SM BKN035 PROB30 1823/1901 4SM -SHRA BKN015
     FM190100 27013G21KT P6SM BKN050 PROB30 1901/1904 4SM -SHRA
      BKN010
     FM190400 33017G28KT P6SM BKN050
     FM190800 36018G32KT P6SM FEW150=

USA.gov is the U.S. government's official web portal to all federal, state and local government web resources and services.